La Plata, Maryland
Current Conditions -  °F | °C
As of 11:33 AM on Monday 26 Jan 2015 (Local Time) from KDAA Reporting Station
Light Rain Light Rain  
Wind Chill: 34°   Ceiling: 700
Heat Index: 34°   Visibility: 4mi
Dew Point: 32°   Wind: 2mph
Humidity: 93%   Direction: NA
Pressure: 29.78"   Gusts: NA
Location:  38.53°N, 76.97°W
Report Text: KDAA 261633Z AUTO VRB02KT 4SM -RA BR OVC007 01/00 A2978 RMK AO2
Loading
Personal Weather Stations






























Interactive Weather Map New forecast layout! Learn more

10-Day Weather Forecast

Advertisements
Track Severe Weather on mobile